Time;durP1;ratioP1;P1;durP2;ratioP2;P2;SDS_P1;SDS_P2;PMS_P1;PMS_P2;Temp;Humidity;BMP_temperature;BMP_pressure;BME280_temperature;BME280_humidity;BME280_pressure;Samples;Min_cycle;Max_cycle;Signal;HPM_P1;HPM_P2
2022/10/22 00:01:27;;;;;;;4.18;2.38;;;;;;;;;;5072382;28;20024;-41
2022/10/22 00:03:53;;;;;;;3.15;2.33;;;;;;;;;;5072458;28;20033;-41
2022/10/22 00:06:18;;;;;;;6.60;2.10;;;;;;;;;;5071947;28;20035;-40
2022/10/22 00:08:44;;;;;;;2.75;1.85;;;;;;;;;;5072063;28;20076;-40
2022/10/22 00:11:11;;;;;;;2.42;1.80;;;;;;;;;;5072027;28;20157;-41
2022/10/22 00:13:36;;;;;;;8.20;2.17;;;;;;;;;;5072099;28;20036;-41
2022/10/22 00:16:01;;;;;;;4.03;1.60;;;;;;;;;;5071790;28;20039;-41
2022/10/22 00:18:27;;;;;;;3.47;2.00;;;;;;;;;;5071812;28;20047;-40
2022/10/22 00:20:52;;;;;;;4.30;2.97;;;;;;;;;;5071807;28;20016;-40
2022/10/22 00:23:18;;;;;;;4.78;2.15;;;;;;;;;;5071721;28;20094;-40
2022/10/22 00:25:43;;;;;;;4.35;1.98;;;;;;;;;;5071820;28;20031;-40
2022/10/22 00:28:10;;;;;;;2.00;1.77;;;;;;;;;;5071612;28;20094;-40
2022/10/22 00:30:36;;;;;;;3.03;1.83;;;;;;;;;;5070369;28;20351;-40
2022/10/22 00:33:01;;;;;;;3.33;1.95;;;;;;;;;;5071851;28;20090;-40
2022/10/22 00:35:27;;;;;;;3.50;2.17;;;;;;;;;;5071748;28;20107;-40
2022/10/22 00:37:52;;;;;;;2.17;1.58;;;;;;;;;;5071463;28;20044;-41
2022/10/22 00:40:18;;;;;;;3.28;1.70;;;;;;;;;;5070554;28;20028;-40
2022/10/22 00:42:43;;;;;;;2.42;1.65;;;;;;;;;;5071617;28;20067;-40
2022/10/22 00:45:08;;;;;;;3.10;2.03;;;;;;;;;;5071498;28;20386;-39
2022/10/22 00:47:36;;;;;;;4.38;2.20;;;;;;;;;;5071380;28;20075;-40
2022/10/22 00:50:03;;;;;;;5.78;2.22;;;;;;;;;;5071412;28;20470;-40
2022/10/22 00:52:28;;;;;;;4.65;2.08;;;;;;;;;;5071296;28;20486;-40
2022/10/22 00:54:54;;;;;;;4.57;1.75;;;;;;;;;;5071691;28;20032;-40
2022/10/22 00:57:20;;;;;;;3.08;1.63;;;;;;;;;;5071590;28;20051;-40
2022/10/22 00:59:46;;;;;;;6.20;2.85;;;;;;;;;;5071635;28;20020;-41
2022/10/22 01:02:11;;;;;;;2.45;1.73;;;;;;;;;;5071371;28;20050;-42
2022/10/22 01:04:37;;;;;;;5.25;2.08;;;;;;;;;;5071480;28;20109;-41
2022/10/22 01:07:02;;;;;;;3.13;2.15;;;;;;;;;;5069511;28;20116;-40
2022/10/22 01:09:33;;;;;;;3.08;1.67;;;;;;;;;;5071529;28;20054;-40
2022/10/22 01:12:07;;;;;;;2.00;1.77;;;;;;;;;;5071399;28;20074;-40
2022/10/22 01:14:33;;;;;;;4.47;1.60;;;;;;;;;;5071459;28;20063;-41
2022/10/22 01:17:18;;;;;;;3.65;2.20;;;;;;;;;;5071076;28;20020;-40
2022/10/22 01:19:44;;;;;;;3.75;2.00;;;;;;;;;;5059725;28;20040;-40
2022/10/22 01:22:18;;;;;;;3.30;2.58;;;;;;;;;;5071101;28;20079;-40
2022/10/22 01:25:10;;;;;;;2.67;1.95;;;;;;;;;;5071086;28;20498;-40
2022/10/22 01:27:58;;;;;;;6.78;2.30;;;;;;;;;;5069740;28;20119;-40
2022/10/22 01:30:24;;;;;;;2.38;1.90;;;;;;;;;;5070838;28;20027;-40
2022/10/22 01:32:53;;;;;;;2.95;2.33;;;;;;;;;;5070976;28;20028;-40
2022/10/22 01:35:21;;;;;;;4.07;2.10;;;;;;;;;;5070877;28;20131;-40
2022/10/22 01:37:57;;;;;;;4.40;2.83;;;;;;;;;;5070844;28;20083;-41
2022/10/22 01:40:22;;;;;;;2.78;2.30;;;;;;;;;;5071084;28;20024;-40
2022/10/22 01:42:58;;;;;;;3.30;2.03;;;;;;;;;;5071041;28;20485;-40
2022/10/22 01:45:24;;;;;;;5.20;1.98;;;;;;;;;;5070825;28;20036;-40
2022/10/22 01:48:02;;;;;;;5.82;2.28;;;;;;;;;;5071089;28;20023;-40
2022/10/22 01:50:34;;;;;;;8.43;3.15;;;;;;;;;;5071040;28;20036;-40
2022/10/22 01:53:06;;;;;;;3.10;1.77;;;;;;;;;;5070799;28;20055;-40
2022/10/22 01:55:50;;;;;;;3.00;2.05;;;;;;;;;;5070651;28;20036;-40
2022/10/22 01:58:26;;;;;;;1.92;1.50;;;;;;;;;;5071107;28;20103;-40
2022/10/22 02:01:10;;;;;;;5.18;2.22;;;;;;;;;;5070908;28;20029;-41
2022/10/22 02:03:48;;;;;;;6.63;2.10;;;;;;;;;;5070993;28;20032;-40
2022/10/22 02:06:17;;;;;;;3.67;2.00;;;;;;;;;;5070929;28;20048;-40
2022/10/22 02:08:43;;;;;;;3.65;2.47;;;;;;;;;;5070718;28;20040;-40
2022/10/22 02:11:10;;;;;;;5.90;2.45;;;;;;;;;;5070765;28;20028;-40
2022/10/22 02:13:40;;;;;;;6.70;1.75;;;;;;;;;;5070535;28;20035;-40
2022/10/22 02:16:06;;;;;;;4.47;1.67;;;;;;;;;;5070826;28;20421;-40
2022/10/22 02:18:34;;;;;;;1.92;1.52;;;;;;;;;;5072584;28;20031;-41
2022/10/22 02:21:00;;;;;;;3.08;2.00;;;;;;;;;;5074116;28;20036;-40
2022/10/22 02:23:26;;;;;;;2.30;1.75;;;;;;;;;;5074370;28;20017;-40
2022/10/22 02:25:59;;;;;;;6.35;2.83;;;;;;;;;;5074300;28;20033;-40
2022/10/22 02:28:32;;;;;;;3.33;1.85;;;;;;;;;;5073980;28;20029;-41
2022/10/22 02:31:05;;;;;;;3.10;2.42;;;;;;;;;;5073921;28;20024;-40
2022/10/22 02:33:33;;;;;;;5.60;2.53;;;;;;;;;;5073839;28;20044;-40
2022/10/22 02:36:00;;;;;;;5.95;2.75;;;;;;;;;;5074157;28;20140;-40
2022/10/22 02:38:26;;;;;;;3.05;2.58;;;;;;;;;;5072358;28;20052;-40
2022/10/22 02:40:51;;;;;;;3.33;1.92;;;;;;;;;;5074129;28;20032;-40
2022/10/22 02:43:17;;;;;;;3.35;2.25;;;;;;;;;;5073597;28;20430;-40
2022/10/22 02:45:42;;;;;;;3.33;2.20;;;;;;;;;;5073776;28;20050;-41
2022/10/22 02:48:07;;;;;;;4.78;2.88;;;;;;;;;;5073954;28;20094;-41
2022/10/22 02:50:33;;;;;;;3.97;2.20;;;;;;;;;;5073777;28;20451;-41
2022/10/22 02:52:58;;;;;;;2.13;1.55;;;;;;;;;;5073817;28;20045;-40
2022/10/22 02:55:24;;;;;;;4.10;2.03;;;;;;;;;;5073387;28;20024;-40
2022/10/22 02:57:49;;;;;;;5.95;2.30;;;;;;;;;;5073881;28;20032;-40
2022/10/22 03:00:15;;;;;;;8.05;3.28;;;;;;;;;;5073509;28;20483;-40
2022/10/22 03:02:40;;;;;;;6.25;2.40;;;;;;;;;;5073369;28;20024;-41
2022/10/22 03:05:06;;;;;;;4.15;2.50;;;;;;;;;;5073604;28;20465;-41
2022/10/22 03:07:32;;;;;;;3.40;1.65;;;;;;;;;;5073453;28;20039;-41
2022/10/22 03:09:57;;;;;;;5.82;2.17;;;;;;;;;;5073492;28;20025;-40
2022/10/22 03:12:22;;;;;;;4.47;2.00;;;;;;;;;;5073286;28;20499;-40
2022/10/22 03:14:48;;;;;;;5.18;2.92;;;;;;;;;;5073402;28;20421;-40
2022/10/22 03:17:13;;;;;;;3.90;2.22;;;;;;;;;;5073120;28;20036;-41
2022/10/22 03:19:39;;;;;;;3.15;2.13;;;;;;;;;;5072975;28;20680;-40
2022/10/22 03:22:06;;;;;;;3.30;1.25;;;;;;;;;;5072992;28;20024;-41
2022/10/22 03:24:36;;;;;;;1.92;1.60;;;;;;;;;;5071659;28;20596;-41
2022/10/22 03:27:01;;;;;;;3.22;1.73;;;;;;;;;;5072769;28;20475;-40
2022/10/22 03:29:27;;;;;;;3.80;2.25;;;;;;;;;;5072531;28;20025;-40
2022/10/22 03:31:53;;;;;;;4.63;2.92;;;;;;;;;;5073019;28;20070;-40
2022/10/22 03:34:19;;;;;;;4.43;2.20;;;;;;;;;;5072850;28;20029;-41
2022/10/22 03:36:44;;;;;;;3.05;2.30;;;;;;;;;;5072540;28;20035;-40
2022/10/22 03:39:12;;;;;;;2.70;2.00;;;;;;;;;;5071264;28;20151;-41
2022/10/22 03:41:37;;;;;;;4.45;2.22;;;;;;;;;;5072764;28;20059;-40
2022/10/22 03:44:03;;;;;;;5.32;1.95;;;;;;;;;;5072873;28;20468;-40
2022/10/22 03:46:29;;;;;;;2.45;1.83;;;;;;;;;;5072310;28;20372;-40
2022/10/22 03:48:55;;;;;;;2.97;2.10;;;;;;;;;;5072480;28;20374;-40
2022/10/22 03:51:20;;;;;;;3.90;2.00;;;;;;;;;;5072277;28;20119;-41
2022/10/22 03:53:46;;;;;;;3.13;1.58;;;;;;;;;;5072626;28;20028;-43
2022/10/22 03:56:11;;;;;;;2.75;1.90;;;;;;;;;;5072192;28;20588;-40
2022/10/22 03:58:37;;;;;;;4.05;2.10;;;;;;;;;;5072169;28;20299;-40
2022/10/22 04:01:06;;;;;;;3.25;1.80;;;;;;;;;;5072443;28;20028;-40
2022/10/22 04:03:32;;;;;;;5.43;2.22;;;;;;;;;;5072069;28;20025;-40
2022/10/22 04:06:01;;;;;;;4.68;2.85;;;;;;;;;;5072380;28;20024;-40
2022/10/22 04:08:27;;;;;;;1.92;1.52;;;;;;;;;;5071969;28;20545;-40
2022/10/22 04:10:52;;;;;;;2.88;2.20;;;;;;;;;;5071988;28;20120;-40
2022/10/22 04:13:17;;;;;;;4.55;2.22;;;;;;;;;;5070665;28;20032;-41
2022/10/22 04:15:43;;;;;;;2.85;2.40;;;;;;;;;;5072039;28;20020;-40
2022/10/22 04:18:08;;;;;;;4.82;3.40;;;;;;;;;;5072125;28;20458;-40
2022/10/22 04:20:33;;;;;;;6.20;2.40;;;;;;;;;;5071864;28;20024;-41
2022/10/22 04:22:59;;;;;;;5.70;2.30;;;;;;;;;;5071792;28;20032;-41
2022/10/22 04:25:24;;;;;;;5.65;2.63;;;;;;;;;;5071995;28;20025;-40
2022/10/22 04:27:50;;;;;;;3.38;2.58;;;;;;;;;;5072066;28;20070;-40
2022/10/22 04:30:15;;;;;;;38.00;4.05;;;;;;;;;;5071914;28;20498;-41
2022/10/22 04:32:41;;;;;;;6.50;2.38;;;;;;;;;;5071810;28;20037;-44
2022/10/22 04:35:06;;;;;;;7.80;3.08;;;;;;;;;;5071638;28;20060;-41
2022/10/22 04:37:32;;;;;;;3.38;1.90;;;;;;;;;;5071472;28;20048;-40
2022/10/22 04:39:58;;;;;;;4.82;3.28;;;;;;;;;;5071399;28;20129;-40
2022/10/22 04:42:23;;;;;;;4.78;1.73;;;;;;;;;;5071082;28;20483;-41
2022/10/22 04:44:49;;;;;;;3.70;2.13;;;;;;;;;;5071796;28;20032;-40
2022/10/22 04:47:14;;;;;;;2.38;1.65;;;;;;;;;;5071752;28;20012;-40
2022/10/22 04:49:40;;;;;;;3.03;2.20;;;;;;;;;;5071662;28;20032;-40
2022/10/22 04:52:05;;;;;;;7.85;2.97;;;;;;;;;;5071362;28;20463;-40
2022/10/22 04:54:30;;;;;;;4.45;2.65;;;;;;;;;;5071368;28;20071;-40
2022/10/22 04:56:56;;;;;;;6.97;2.88;;;;;;;;;;5071675;28;20021;-40
2022/10/22 04:59:21;;;;;;;6.30;2.22;;;;;;;;;;5071534;28;20486;-40
2022/10/22 05:01:47;;;;;;;3.22;2.47;;;;;;;;;;5071353;28;20467;-40
2022/10/22 05:04:14;;;;;;;3.88;2.47;;;;;;;;;;5071392;28;20039;-41
2022/10/22 05:06:39;;;;;;;6.80;3.17;;;;;;;;;;5071132;28;20044;-41
2022/10/22 05:09:06;;;;;;;5.07;2.67;;;;;;;;;;5071354;28;20487;-41
2022/10/22 05:11:36;;;;;;;3.30;2.53;;;;;;;;;;5071509;28;20025;-40
2022/10/22 05:14:02;;;;;;;4.13;2.42;;;;;;;;;;5071090;28;20116;-40
2022/10/22 05:16:28;;;;;;;5.35;3.15;;;;;;;;;;5071153;28;20028;-40
2022/10/22 05:18:54;;;;;;;3.45;2.33;;;;;;;;;;5071209;28;20391;-41
2022/10/22 05:21:20;;;;;;;6.47;2.55;;;;;;;;;;5071298;28;20019;-41
2022/10/22 05:23:47;;;;;;;3.60;2.53;;;;;;;;;;5071201;28;20478;-40
2022/10/22 05:26:13;;;;;;;4.20;2.20;;;;;;;;;;5069752;28;20490;-41
2022/10/22 05:28:39;;;;;;;3.70;3.00;;;;;;;;;;5071028;28;20474;-41
2022/10/22 05:31:05;;;;;;;6.43;2.92;;;;;;;;;;5071081;28;20044;-41
2022/10/22 05:33:31;;;;;;;3.40;2.50;;;;;;;;;;5070948;28;20032;-40
2022/10/22 05:35:56;;;;;;;17.83;2.63;;;;;;;;;;5071235;28;20402;-40
2022/10/22 05:38:23;;;;;;;3.35;2.33;;;;;;;;;;5070837;28;20055;-40
2022/10/22 05:40:57;;;;;;;5.50;2.78;;;;;;;;;;5070982;28;20111;-40
2022/10/22 05:43:23;;;;;;;5.03;2.55;;;;;;;;;;5069818;28;20040;-40
2022/10/22 05:45:49;;;;;;;7.78;2.53;;;;;;;;;;5052939;28;20020;-40
2022/10/22 05:48:14;;;;;;;7.35;3.65;;;;;;;;;;5069640;28;20032;-40
2022/10/22 05:50:39;;;;;;;9.20;2.78;;;;;;;;;;5070832;28;20021;-40
2022/10/22 05:53:05;;;;;;;3.33;2.28;;;;;;;;;;5073590;28;20063;-40
2022/10/22 05:55:35;;;;;;;4.07;2.90;;;;;;;;;;5074384;28;20028;-41
2022/10/22 05:58:02;;;;;;;8.38;3.17;;;;;;;;;;5074832;28;20028;-40
2022/10/22 06:00:27;;;;;;;5.78;2.90;;;;;;;;;;5074792;28;20086;-40
2022/10/22 06:02:53;;;;;;;8.40;3.15;;;;;;;;;;5074542;28;20409;-40
2022/10/22 06:05:18;;;;;;;5.30;2.80;;;;;;;;;;5074526;28;20013;-40
2022/10/22 06:07:43;;;;;;;5.00;2.83;;;;;;;;;;5074566;28;20527;-40
2022/10/22 06:10:19;;;;;;;4.85;3.00;;;;;;;;;;5074301;28;20107;-39
2022/10/22 06:12:46;;;;;;;5.60;3.20;;;;;;;;;;5074347;28;20041;-41
2022/10/22 06:15:12;;;;;;;4.68;2.92;;;;;;;;;;5074517;28;20013;-40
2022/10/22 06:17:38;;;;;;;3.38;2.53;;;;;;;;;;5074077;28;20039;-40
2022/10/22 06:20:03;;;;;;;3.75;2.85;;;;;;;;;;5074435;28;20025;-40
2022/10/22 06:22:29;;;;;;;6.05;3.40;;;;;;;;;;5074095;28;20086;-40
2022/10/22 06:24:55;;;;;;;6.45;3.53;;;;;;;;;;5072799;28;20077;-40
2022/10/22 06:27:20;;;;;;;3.35;2.42;;;;;;;;;;5072690;28;20078;-40
2022/10/22 06:29:46;;;;;;;4.22;2.13;;;;;;;;;;5074649;28;20058;-41
2022/10/22 06:32:12;;;;;;;6.32;3.20;;;;;;;;;;5072690;28;20020;-40
2022/10/22 06:34:38;;;;;;;5.72;2.83;;;;;;;;;;5073931;28;20678;-40
2022/10/22 06:37:04;;;;;;;8.45;3.80;;;;;;;;;;5073641;28;20544;-40
2022/10/22 06:39:29;;;;;;;3.70;2.80;;;;;;;;;;5073653;28;20033;-40
2022/10/22 06:41:55;;;;;;;7.60;3.58;;;;;;;;;;5072870;28;20020;-41
2022/10/22 06:44:20;;;;;;;4.70;2.45;;;;;;;;;;5073742;28;20099;-40
2022/10/22 06:46:48;;;;;;;5.47;3.55;;;;;;;;;;5073958;28;20042;-41
2022/10/22 06:49:14;;;;;;;3.90;2.97;;;;;;;;;;5073889;28;20418;-41
2022/10/22 06:51:40;;;;;;;10.05;3.92;;;;;;;;;;5073588;28;20783;-40
2022/10/22 06:54:06;;;;;;;4.72;3.03;;;;;;;;;;5072126;28;20051;-40
2022/10/22 06:56:32;;;;;;;10.20;3.30;;;;;;;;;;5073368;28;20024;-40
2022/10/22 06:58:57;;;;;;;7.00;3.15;;;;;;;;;;5073540;28;20052;-40
2022/10/22 07:01:33;;;;;;;8.40;2.75;;;;;;;;;;5073373;28;20025;-40
2022/10/22 07:03:59;;;;;;;5.38;3.25;;;;;;;;;;5072729;28;20086;-40
2022/10/22 07:06:25;;;;;;;4.88;2.83;;;;;;;;;;5071913;28;20021;-40
2022/10/22 07:08:52;;;;;;;3.95;2.88;;;;;;;;;;5073512;28;20108;-40
2022/10/22 07:11:19;;;;;;;5.22;3.55;;;;;;;;;;5073300;28;20028;-40
2022/10/22 07:13:45;;;;;;;10.57;3.10;;;;;;;;;;5073016;28;20051;-41
2022/10/22 07:16:10;;;;;;;4.50;2.85;;;;;;;;;;5073098;28;20016;-40
2022/10/22 07:18:36;;;;;;;9.15;3.47;;;;;;;;;;5073017;28;20039;-41
2022/10/22 07:21:02;;;;;;;6.70;3.65;;;;;;;;;;5073262;28;20013;-40
2022/10/22 07:23:28;;;;;;;5.03;3.38;;;;;;;;;;5071683;28;20474;-40
2022/10/22 07:25:53;;;;;;;5.80;3.67;;;;;;;;;;5072942;28;20523;-40
2022/10/22 07:28:19;;;;;;;5.65;3.63;;;;;;;;;;5073151;28;20025;-40
2022/10/22 07:30:45;;;;;;;3.63;3.28;;;;;;;;;;5073074;28;20352;-40
2022/10/22 07:33:11;;;;;;;7.15;3.25;;;;;;;;;;5072992;28;20047;-41
2022/10/22 07:35:38;;;;;;;6.60;2.83;;;;;;;;;;5071610;28;20096;-40
2022/10/22 07:38:03;;;;;;;7.35;3.17;;;;;;;;;;5072743;28;20048;-40
2022/10/22 07:40:29;;;;;;;6.93;3.50;;;;;;;;;;5072546;28;20051;-41
2022/10/22 07:42:55;;;;;;;4.45;3.25;;;;;;;;;;5072607;28;20119;-40
2022/10/22 07:45:20;;;;;;;6.72;3.15;;;;;;;;;;5072392;28;20419;-40
2022/10/22 07:47:46;;;;;;;5.10;3.28;;;;;;;;;;5072659;28;20029;-40
2022/10/22 07:50:12;;;;;;;4.00;2.88;;;;;;;;;;5072711;28;20028;-40
2022/10/22 07:52:37;;;;;;;7.90;3.72;;;;;;;;;;5072253;28;20106;-40
2022/10/22 07:55:03;;;;;;;7.85;4.55;;;;;;;;;;5072448;28;20047;-40
2022/10/22 07:57:29;;;;;;;7.97;2.90;;;;;;;;;;5072099;28;20055;-40
2022/10/22 07:59:56;;;;;;;4.63;2.83;;;;;;;;;;5072264;28;20016;-40
2022/10/22 08:02:22;;;;;;;4.85;3.25;;;;;;;;;;5072414;28;20029;-40
2022/10/22 08:04:48;;;;;;;12.52;2.92;;;;;;;;;;5072394;28;20020;-40
2022/10/22 08:07:14;;;;;;;5.55;3.00;;;;;;;;;;5072123;28;20032;-41
2022/10/22 08:09:39;;;;;;;10.25;3.15;;;;;;;;;;5071997;28;20270;-40
2022/10/22 08:12:05;;;;;;;3.13;2.58;;;;;;;;;;5071977;28;20382;-40
2022/10/22 08:14:30;;;;;;;4.35;2.97;;;;;;;;;;5072155;28;20032;-40
2022/10/22 08:16:56;;;;;;;5.53;2.80;;;;;;;;;;5071079;28;20470;-41
2022/10/22 08:19:21;;;;;;;4.63;3.25;;;;;;;;;;5071851;28;20021;-40
2022/10/22 08:21:47;;;;;;;5.05;2.83;;;;;;;;;;5072441;28;20035;-41
2022/10/22 08:24:13;;;;;;;4.28;2.92;;;;;;;;;;5072028;28;20016;-41
2022/10/22 08:26:39;;;;;;;11.20;3.90;;;;;;;;;;5071946;28;20402;-40
2022/10/22 08:29:04;;;;;;;13.95;3.83;;;;;;;;;;5071677;28;20017;-40
2022/10/22 08:31:29;;;;;;;6.55;3.38;;;;;;;;;;5071966;28;20380;-40
2022/10/22 08:33:55;;;;;;;5.15;3.42;;;;;;;;;;5071566;28;20494;-40
2022/10/22 08:36:20;;;;;;;11.27;3.80;;;;;;;;;;5071536;28;20077;-40
2022/10/22 08:38:46;;;;;;;5.72;3.33;;;;;;;;;;5071424;28;20080;-41
2022/10/22 08:41:13;;;;;;;13.40;3.42;;;;;;;;;;5071627;28;20025;-40
2022/10/22 08:43:38;;;;;;;5.45;3.28;;;;;;;;;;5071759;28;20461;-40
2022/10/22 08:46:09;;;;;;;4.03;3.00;;;;;;;;;;5071439;28;20082;-40
2022/10/22 08:48:54;;;;;;;6.38;2.90;;;;;;;;;;5071373;28;20030;-41
2022/10/22 08:51:32;;;;;;;8.35;3.30;;;;;;;;;;5071493;28;20446;-41
2022/10/22 08:54:13;;;;;;;6.28;2.97;;;;;;;;;;5071369;28;20499;-40
2022/10/22 08:56:41;;;;;;;9.25;2.95;;;;;;;;;;5071533;28;20449;-40
2022/10/22 08:59:07;;;;;;;5.53;3.67;;;;;;;;;;5071668;28;20095;-40
2022/10/22 09:01:35;;;;;;;3.08;2.50;;;;;;;;;;5071199;28;20131;-40
2022/10/22 09:04:16;;;;;;;7.32;3.45;;;;;;;;;;5071391;28;20024;-40
2022/10/22 09:06:44;;;;;;;7.25;3.30;;;;;;;;;;5071136;28;20038;-40
2022/10/22 09:09:17;;;;;;;7.43;3.28;;;;;;;;;;5071298;28;20466;-40
2022/10/22 09:11:45;;;;;;;8.60;3.70;;;;;;;;;;5071181;28;20036;-40
2022/10/22 09:14:15;;;;;;;5.55;3.25;;;;;;;;;;5071140;28;20044;-40
2022/10/22 09:16:53;;;;;;;4.32;3.08;;;;;;;;;;5071063;28;20037;-40
2022/10/22 09:19:25;;;;;;;4.80;3.50;;;;;;;;;;5069765;28;20111;-40
2022/10/22 09:21:53;;;;;;;4.82;2.65;;;;;;;;;;5071153;28;20029;-40
2022/10/22 09:24:34;;;;;;;9.30;4.82;;;;;;;;;;5071219;28;20103;-40
2022/10/22 09:27:00;;;;;;;5.30;3.17;;;;;;;;;;5072381;28;20036;-40
2022/10/22 09:29:30;;;;;;;7.15;3.03;;;;;;;;;;5075357;28;20103;-41
2022/10/22 09:31:56;;;;;;;6.35;2.92;;;;;;;;;;5075058;28;20542;-40
2022/10/22 09:34:22;;;;;;;4.38;2.90;;;;;;;;;;5075083;28;20111;-40
2022/10/22 09:36:55;;;;;;;4.00;2.65;;;;;;;;;;5074946;28;20039;-40
2022/10/22 09:39:26;;;;;;;7.80;3.70;;;;;;;;;;5075241;28;20036;-40
2022/10/22 09:41:52;;;;;;;4.88;3.38;;;;;;;;;;5075033;28;20377;-40
2022/10/22 09:44:18;;;;;;;9.82;3.38;;;;;;;;;;5074820;28;20108;-41
2022/10/22 09:46:44;;;;;;;5.82;3.45;;;;;;;;;;5075021;28;20033;-40
2022/10/22 09:49:12;;;;;;;6.72;3.22;;;;;;;;;;5075092;28;20017;-41
2022/10/22 09:51:45;;;;;;;5.97;2.95;;;;;;;;;;5074653;28;20078;-40
2022/10/22 09:54:19;;;;;;;4.20;3.28;;;;;;;;;;5074924;28;20090;-40
2022/10/22 09:56:55;;;;;;;10.63;3.90;;;;;;;;;;5074553;28;20500;-41
2022/10/22 09:59:31;;;;;;;5.38;3.65;;;;;;;;;;5074846;28;20381;-40
2022/10/22 10:02:12;;;;;;;5.85;3.47;;;;;;;;;;5074852;28;20098;-40
2022/10/22 10:04:57;;;;;;;4.70;3.60;;;;;;;;;;5074283;28;20043;-40
2022/10/22 10:07:23;;;;;;;5.07;3.67;;;;;;;;;;5074464;28;20122;-40
2022/10/22 10:09:50;;;;;;;5.45;2.95;;;;;;;;;;5074341;28;20082;-40
2022/10/22 10:12:25;;;;;;;6.03;3.30;;;;;;;;;;5074299;28;20081;-40
2022/10/22 10:14:56;;;;;;;8.15;3.70;;;;;;;;;;5074330;28;20082;-40
2022/10/22 10:17:25;;;;;;;5.00;3.25;;;;;;;;;;5074260;28;20028;-40
2022/10/22 10:20:02;;;;;;;4.50;3.40;;;;;;;;;;5074139;28;20025;-40
2022/10/22 10:22:33;;;;;;;8.02;3.17;;;;;;;;;;5074460;28;20127;-41
2022/10/22 10:25:17;;;;;;;5.00;3.10;;;;;;;;;;5074384;28;20039;-40
2022/10/22 10:27:47;;;;;;;4.43;2.67;;;;;;;;;;5074055;28;20036;-40
2022/10/22 10:30:20;;;;;;;3.67;2.38;;;;;;;;;;5072508;28;20024;-40
2022/10/22 10:32:47;;;;;;;6.50;3.00;;;;;;;;;;5072524;28;20071;-40
2022/10/22 10:35:31;;;;;;;3.25;2.63;;;;;;;;;;5073816;28;20368;-40
2022/10/22 10:38:15;;;;;;;8.13;5.07;;;;;;;;;;5073363;28;20135;-40
2022/10/22 10:40:41;;;;;;;5.32;3.42;;;;;;;;;;5073858;28;20044;-40
2022/10/22 10:43:09;;;;;;;7.80;2.33;;;;;;;;;;5073909;28;20411;-40
2022/10/22 10:45:41;;;;;;;16.92;3.53;;;;;;;;;;5073699;28;20039;-41
2022/10/22 10:48:07;;;;;;;5.57;3.22;;;;;;;;;;5073784;28;20146;-40
2022/10/22 10:50:38;;;;;;;2.42;2.17;;;;;;;;;;5073536;28;20091;-40
2022/10/22 10:53:15;;;;;;;6.95;3.70;;;;;;;;;;5073537;28;20495;-40
2022/10/22 10:55:47;;;;;;;4.13;3.03;;;;;;;;;;5073589;28;20040;-40
2022/10/22 10:58:31;;;;;;;7.93;4.53;;;;;;;;;;5073779;28;20356;-41
2022/10/22 11:01:00;;;;;;;8.10;4.95;;;;;;;;;;5073436;28;20044;-40
2022/10/22 11:03:45;;;;;;;6.32;3.65;;;;;;;;;;5073654;28;20024;-40
2022/10/22 11:06:14;;;;;;;9.55;3.58;;;;;;;;;;5073628;28;20038;-40
2022/10/22 11:08:48;;;;;;;6.05;3.35;;;;;;;;;;5073413;28;20013;-40
2022/10/22 11:11:21;;;;;;;4.65;3.47;;;;;;;;;;5073268;28;20478;-40
2022/10/22 11:13:47;;;;;;;4.85;3.38;;;;;;;;;;5073000;28;20040;-40
2022/10/22 11:16:27;;;;;;;8.00;2.53;;;;;;;;;;5073076;28;20577;-40
2022/10/22 11:18:56;;;;;;;8.52;4.07;;;;;;;;;;5073087;28;20043;-41
2022/10/22 11:21:38;;;;;;;7.22;2.92;;;;;;;;;;5073064;28;20023;-40
2022/10/22 11:24:23;;;;;;;8.57;2.90;;;;;;;;;;5072862;28;20029;-40
2022/10/22 11:26:48;;;;;;;7.07;2.95;;;;;;;;;;5073159;28;20044;-40
2022/10/22 11:29:16;;;;;;;6.90;3.53;;;;;;;;;;5072842;28;20500;-40
2022/10/22 11:31:43;;;;;;;5.38;2.50;;;;;;;;;;5072653;28;20036;-40
2022/10/22 11:34:14;;;;;;;7.32;3.20;;;;;;;;;;5072770;28;20029;-40
2022/10/22 11:36:40;;;;;;;8.23;2.97;;;;;;;;;;5072791;28;20386;-40
2022/10/22 11:39:06;;;;;;;3.95;2.70;;;;;;;;;;5072929;28;20363;-40
2022/10/22 11:41:32;;;;;;;4.68;2.90;;;;;;;;;;5072576;28;20040;-41
2022/10/22 11:44:06;;;;;;;6.20;3.03;;;;;;;;;;5072663;28;20025;-40
2022/10/22 11:46:38;;;;;;;10.38;3.08;;;;;;;;;;5072419;28;20025;-40
2022/10/22 11:49:12;;;;;;;10.15;5.18;;;;;;;;;;5072765;28;20036;-40
2022/10/22 11:51:39;;;;;;;3.22;2.58;;;;;;;;;;5072384;28;20033;-39
2022/10/22 11:54:27;;;;;;;2.80;2.13;;;;;;;;;;5072336;28;20031;-40
2022/10/22 11:56:57;;;;;;;5.03;2.70;;;;;;;;;;5072360;28;20032;-40
2022/10/22 11:59:33;;;;;;;29.95;4.10;;;;;;;;;;5071256;28;20119;-40
2022/10/22 12:01:59;;;;;;;6.13;3.83;;;;;;;;;;5072238;28;20545;-40
2022/10/22 12:04:38;;;;;;;6.47;1.85;;;;;;;;;;5072318;28;20060;-40
2022/10/22 12:07:24;;;;;;;5.78;2.90;;;;;;;;;;5072189;28;20029;-40
2022/10/22 12:09:50;;;;;;;6.13;3.33;;;;;;;;;;5071994;28;20071;-40
2022/10/22 12:12:19;;;;;;;5.80;2.90;;;;;;;;;;5072336;28;20021;-40
2022/10/22 12:14:51;;;;;;;5.82;3.22;;;;;;;;;;5070605;28;20044;-39
2022/10/22 12:17:17;;;;;;;9.32;3.50;;;;;;;;;;5071999;28;20528;-40
2022/10/22 12:19:44;;;;;;;15.68;4.13;;;;;;;;;;5071888;28;20036;-40
2022/10/22 12:22:10;;;;;;;7.20;3.05;;;;;;;;;;5071845;28;20162;-40
2022/10/22 12:24:41;;;;;;;5.55;2.53;;;;;;;;;;5072077;28;20366;-40
2022/10/22 12:27:26;;;;;;;3.90;3.00;;;;;;;;;;5071653;28;20501;-40
2022/10/22 12:29:55;;;;;;;3.33;2.95;;;;;;;;;;5071806;28;20079;-40
2022/10/22 12:32:21;;;;;;;6.25;2.70;;;;;;;;;;5071920;28;20079;-40
2022/10/22 12:34:54;;;;;;;6.57;4.10;;;;;;;;;;5070387;28;20036;-39
2022/10/22 12:37:20;;;;;;;3.15;2.20;;;;;;;;;;5071444;28;20041;-40
2022/10/22 12:39:46;;;;;;;6.07;3.65;;;;;;;;;;5071640;28;20032;-40
2022/10/22 12:42:13;;;;;;;4.88;3.33;;;;;;;;;;5071476;28;20032;-39
2022/10/22 12:44:39;;;;;;;6.75;2.78;;;;;;;;;;5071593;28;20035;-40
2022/10/22 12:47:06;;;;;;;8.25;3.53;;;;;;;;;;5070334;28;20463;-39
2022/10/22 12:49:39;;;;;;;6.40;3.10;;;;;;;;;;5071396;28;20027;-40
2022/10/22 12:52:24;;;;;;;8.60;2.90;;;;;;;;;;5071737;28;20031;-40
2022/10/22 12:54:53;;;;;;;5.22;2.90;;;;;;;;;;5071412;28;20423;-40
2022/10/22 12:57:20;;;;;;;6.30;3.75;;;;;;;;;;5071454;28;20027;-40
2022/10/22 12:59:47;;;;;;;6.60;2.90;;;;;;;;;;5071593;28;20025;-40
2022/10/22 13:02:20;;;;;;;13.55;4.68;;;;;;;;;;5070745;28;20058;-39
2022/10/22 13:05:06;;;;;;;3.58;2.50;;;;;;;;;;5071219;28;20021;-40
2022/10/22 13:07:40;;;;;;;8.07;2.85;;;;;;;;;;5071194;28;20052;-39
2022/10/22 13:10:26;;;;;;;4.72;3.38;;;;;;;;;;5071544;28;20031;-40
2022/10/22 13:12:56;;;;;;;5.65;3.88;;;;;;;;;;5070958;28;20048;-39
2022/10/22 13:15:22;;;;;;;8.80;3.30;;;;;;;;;;5071209;28;20036;-40
2022/10/22 13:17:48;;;;;;;6.45;3.58;;;;;;;;;;5071373;28;20020;-40
2022/10/22 13:20:16;;;;;;;7.65;2.90;;;;;;;;;;5071733;28;20020;-40
2022/10/22 13:22:58;;;;;;;4.70;3.58;;;;;;;;;;5071098;28;20052;-39
2022/10/22 13:25:29;;;;;;;7.68;2.90;;;;;;;;;;5071075;28;20029;-40
2022/10/22 13:27:55;;;;;;;9.98;2.65;;;;;;;;;;5070988;28;20091;-40
2022/10/22 13:30:28;;;;;;;2.80;2.00;;;;;;;;;;5071190;28;20020;-40
2022/10/22 13:32:56;;;;;;;4.38;1.85;;;;;;;;;;5071374;28;20040;-40
2022/10/22 13:35:24;;;;;;;4.00;2.72;;;;;;;;;;5070911;28;20029;-40
2022/10/22 13:37:59;;;;;;;3.78;2.97;;;;;;;;;;5070885;28;20055;-40
2022/10/22 13:40:26;;;;;;;0.90;0.80;;;;;;;;;;5070953;28;20536;-42
2022/10/22 13:42:51;;;;;;;3.60;1.48;;;;;;;;;;5070839;28;20482;-40
2022/10/22 13:45:18;;;;;;;2.28;2.08;;;;;;;;;;5070989;28;20032;-45
2022/10/22 13:47:48;;;;;;;4.07;2.65;;;;;;;;;;5069561;28;20028;-40
2022/10/22 13:50:21;;;;;;;6.22;1.65;;;;;;;;;;5070810;28;20088;-40
2022/10/22 13:52:54;;;;;;;4.30;2.13;;;;;;;;;;5069224;28;20055;-40
2022/10/22 13:55:25;;;;;;;1.63;1.38;;;;;;;;;;5069617;28;20020;-40
2022/10/22 13:58:13;;;;;;;2.72;2.10;;;;;;;;;;5070693;28;20054;-40
2022/10/22 14:00:41;;;;;;;1.95;1.50;;;;;;;;;;5070514;28;20032;-40
2022/10/22 14:03:10;;;;;;;4.00;2.25;;;;;;;;;;5070905;28;20024;-40
2022/10/22 14:05:41;;;;;;;3.88;1.98;;;;;;;;;;5070611;28;20382;-40
2022/10/22 14:08:11;;;;;;;2.08;1.85;;;;;;;;;;5069416;28;20067;-40
2022/10/22 14:10:37;;;;;;;4.70;1.95;;;;;;;;;;5070691;28;20016;-40
2022/10/22 14:13:05;;;;;;;7.65;2.10;;;;;;;;;;5071663;28;20128;-40
2022/10/22 14:15:31;;;;;;;5.43;1.92;;;;;;;;;;5074087;28;20478;-40
2022/10/22 14:17:58;;;;;;;3.47;1.85;;;;;;;;;;5074122;28;20433;-40
2022/10/22 14:20:28;;;;;;;2.80;2.53;;;;;;;;;;5074240;28;20020;-41
2022/10/22 14:22:54;;;;;;;4.55;1.75;;;;;;;;;;5074122;28;20051;-40
2022/10/22 14:25:21;;;;;;;3.67;1.60;;;;;;;;;;5074127;28;20471;-40
2022/10/22 14:27:47;;;;;;;2.97;1.40;;;;;;;;;;5074021;28;20035;-40
2022/10/22 14:30:14;;;;;;;1.25;0.93;;;;;;;;;;5074280;28;20024;-40
2022/10/22 14:32:39;;;;;;;0.98;0.68;;;;;;;;;;5073900;28;20514;-41
2022/10/22 14:35:05;;;;;;;1.92;1.20;;;;;;;;;;5073941;28;20016;-40
2022/10/22 14:37:31;;;;;;;2.03;0.75;;;;;;;;;;5073689;28;20041;-40
2022/10/22 14:40:01;;;;;;;1.10;0.55;;;;;;;;;;5074028;28;20100;-39
2022/10/22 14:42:27;;;;;;;1.30;1.20;;;;;;;;;;5074129;28;20029;-40
2022/10/22 14:44:53;;;;;;;3.17;0.90;;;;;;;;;;5073812;28;20017;-40
2022/10/22 14:47:18;;;;;;;1.17;0.80;;;;;;;;;;5073728;28;20040;-40
2022/10/22 14:49:44;;;;;;;0.82;0.40;;;;;;;;;;5073605;28;20016;-40
2022/10/22 14:52:10;;;;;;;0.35;0.20;;;;;;;;;;5073659;28;20082;-40